Tempe, AZ (85287)

11:17 AM MST on August 30, 2015 (GMT -0700)
Down Stream Dam | | Change Station
CLOSE
Current Station
Personal Weather Station
Location: Tempe, AZ
Elevation: 1122 ft
Nearby Weather Stations

Elev 1122 ft 33.43 °N, 111.95 °W | Updated 2 minutes ago

Partly Cloudy
Partly Cloudy
96.8 °F
Feels Like 95 °F
N
3.0
Wind Variable Wind from North
Gusts 5.0 mph

Today
High -- | Low -- °F
--% Chance of Precip.
Yesterday
High -- | Low -- °F
Precip. -- in
6:00 AM 6:55 PM
Full, 99% visible
Pressure 29.82 in
Visibility 10.0 miles
Clouds Few 8000 ft
Few 15000 ft
Scattered Clouds 25000 ft
Heat Index 95 °F
Dew Point 56 °F
Humidity 26%
Rainfall 0.00 in
Snow Depth Not available.
UV 7 out of 12
Pollen 5.10 out of 12
Air Quality Not available.
Flu Activity Not available.
METAR KPHX 301751Z 14008KT 10SM FEW080 FEW150 SCT250 37/16 A2988 RMK AO2 SLP096 T03720156 10372 20283 52001
Pressure 29.82 in
Visibility 10.0 miles
Clouds Few 8000 ft
Few 15000 ft
Scattered Clouds 25000 ft
Heat Index 95 °F
Dew Point 56 °F
Humidity 26%
Rainfall 0.00 in
Snow Depth Not available.
UV 7 out of 12
Pollen 5.10 out of 12
Air Quality Not available.
Flu Activity Not available.
METAR KPHX 301751Z 14008KT 10SM FEW080 FEW150 SCT250 37/16 A2988 RMK AO2 SLP096 T03720156 10372 20283 52001

10-Day Weather Forecast

×

Almanac

Astronomy

Aug. 30, 2015 Rise Set
Actual Time
Civil Twilight
Nautical Twilight
Astronomical Twilight
Moon
Length of Visible Light
Length of Day
Tomorrow will be .
, % of the Moon is Illuminated

Today's Extremes

State Highs State Lows

Community

WunderPhotos

Upload Photos

1,851,027 photos uploaded!

WunderBlogs® & News

Nearby

Air Quality

  Air Quality AQ Index Pollutant
Not available.

Snow Depth

Station Depth Elevation

Earthquake Activity

City Distance Mag. Time & Date
Minimum magnitude displayed is 2.5.

Coastal Water Temperatures

Place Temperature

Stations

Nearby Weather Stations

Station Location Temp. Windchill Dew Point Humidity Wind Precip. Elev Updated Type